KIPJ

Lincolnton-Lincoln County Regional Airport

Lincolnton, North Carolina, USA
METAR KIPJ 161540Z AUTO 00000KT 10SM CLR 07/M01 A3009 RMK AO2 T00691008
Observed Flight Rules
Nov-16 @ 15:40 UTC (25 minutes ago) Visual Flight Rules
Visibility Clouds
10 miles
  • Clear skies
Temperatures Readings
Current 7°C / 45°F
Dewpoint -1°C / 30°F
Humidity 57%
Altimeter 30.09" Hg
Pressure 1019 hPa
Elevation 267
METAR KIPJ 161540Z AUTO 00000KT 10SM CLR 07/M01 A3009 RMK AO2 T00691008
Observed Flight Rules
Nov-16 @ 15:40 UTC
(25 minutes ago)
VFR
Clouds
  • Clear skies
Temperature Dewpoint
7°C / 45°F -1°C / 30°F
Humidity Altimeter Pressure
57% 30.09" Hg 1019 hPa